Time;durP1;ratioP1;P1;durP2;ratioP2;P2;SDS_P1;SDS_P2;PMS_P1;PMS_P2;Temp;Humidity;BMP_temperature;BMP_pressure;BME280_temperature;BME280_humidity;BME280_pressure;Samples;Min_cycle;Max_cycle;Signal;HPM_P1;HPM_P2
2021/06/15 00:00:00;;;;;;;5.15;3.90;;;16.70;99.90;;;;;;5073832;28;20301;-67
2021/06/15 00:02:28;;;;;;;7.78;4.35;;;16.70;99.90;;;;;;5074038;28;20291;-66
2021/06/15 00:04:55;;;;;;;4.40;4.00;;;16.70;99.90;;;;;;5073281;28;20291;-67
2021/06/15 00:07:24;;;;;;;4.72;4.10;;;16.70;99.90;;;;;;5073893;28;20306;-67
2021/06/15 00:09:53;;;;;;;7.22;4.68;;;16.70;99.90;;;;;;5073976;28;20204;-67
2021/06/15 00:12:21;;;;;;;6.13;4.10;;;16.70;99.90;;;;;;5073794;28;20211;-67
2021/06/15 00:14:49;;;;;;;6.68;4.03;;;16.70;99.90;;;;;;5073747;28;20217;-67
2021/06/15 00:17:17;;;;;;;6.05;4.03;;;16.70;99.90;;;;;;5073691;28;20205;-67
2021/06/15 00:19:45;;;;;;;7.13;4.05;;;16.70;99.90;;;;;;5073730;28;20201;-67
2021/06/15 00:22:12;;;;;;;7.82;4.20;;;16.70;99.90;;;;;;5073780;28;20207;-67
2021/06/15 00:24:40;;;;;;;5.15;4.05;;;16.70;99.90;;;;;;5073396;28;20223;-67
2021/06/15 00:27:09;;;;;;;7.97;4.55;;;16.60;99.90;;;;;;5073367;28;20580;-67
2021/06/15 00:29:37;;;;;;;5.72;4.30;;;16.60;99.90;;;;;;5073425;28;20846;-66
2021/06/15 00:32:06;;;;;;;4.80;4.10;;;16.60;99.90;;;;;;5073451;28;20201;-67
2021/06/15 00:34:34;;;;;;;5.53;4.20;;;16.60;99.90;;;;;;5073501;28;20291;-67
2021/06/15 00:37:01;;;;;;;4.45;3.95;;;16.50;99.90;;;;;;5073383;28;20197;-67
2021/06/15 00:39:29;;;;;;;4.38;3.95;;;16.50;99.90;;;;;;5072895;28;20606;-67
2021/06/15 00:41:57;;;;;;;4.70;4.03;;;16.50;99.90;;;;;;5073423;28;20234;-67
2021/06/15 00:44:26;;;;;;;5.03;4.22;;;16.50;99.90;;;;;;5073744;28;20193;-67
2021/06/15 00:46:55;;;;;;;5.57;4.50;;;16.50;99.90;;;;;;5073296;28;20201;-68
2021/06/15 00:49:25;;;;;;;5.70;3.92;;;16.50;99.90;;;;;;5072983;28;20715;-68
2021/06/15 00:51:54;;;;;;;5.00;4.47;;;16.50;99.90;;;;;;5082524;28;20219;-67
2021/06/15 00:54:23;;;;;;;5.63;4.28;;;16.50;99.90;;;;;;5092898;28;20199;-67
2021/06/15 00:56:51;;;;;;;6.90;4.38;;;16.40;99.90;;;;;;5092900;28;20307;-68
2021/06/15 00:59:19;;;;;;;5.55;4.28;;;16.30;99.90;;;;;;5093088;28;20202;-66
2021/06/15 01:01:48;;;;;;;10.48;4.85;;;16.30;99.90;;;;;;5093265;28;20286;-67
2021/06/15 01:04:18;;;;;;;6.75;4.50;;;16.30;99.90;;;;;;5093137;28;20233;-66
2021/06/15 01:06:54;;;;;;;6.97;4.47;;;16.20;99.90;;;;;;5093132;28;20200;-67
2021/06/15 01:09:29;;;;;;;8.38;4.80;;;16.20;99.90;;;;;;5092893;28;20180;-66
2021/06/15 01:12:06;;;;;;;7.13;4.70;;;16.10;99.90;;;;;;5092964;28;20332;-67
2021/06/15 01:14:47;;;;;;;5.38;4.15;;;16.20;99.90;;;;;;5092999;28;20187;-67
2021/06/15 01:17:22;;;;;;;8.98;4.65;;;16.10;99.90;;;;;;5092858;28;20299;-67
2021/06/15 01:20:04;;;;;;;7.00;4.38;;;16.10;99.90;;;;;;5092854;28;20279;-67
2021/06/15 01:22:46;;;;;;;8.60;4.70;;;16.20;99.90;;;;;;5092626;28;20183;-67
2021/06/15 01:25:23;;;;;;;9.05;4.88;;;16.10;99.90;;;;;;5092400;28;20693;-67
2021/06/15 01:27:55;;;;;;;5.18;4.57;;;16.20;99.90;;;;;;5092380;28;20232;-67
2021/06/15 01:30:27;;;;;;;5.35;4.28;;;16.30;99.90;;;;;;5093342;28;20191;-67
2021/06/15 01:32:58;;;;;;;5.10;4.60;;;16.20;99.90;;;;;;5093813;28;20181;-66
2021/06/15 01:35:28;;;;;;;6.50;4.68;;;16.30;99.90;;;;;;5094262;28;20184;-68
2021/06/15 01:38:00;;;;;;;6.78;4.80;;;16.20;99.90;;;;;;5093620;28;20736;-66
2021/06/15 01:40:37;;;;;;;6.85;5.38;;;16.10;99.90;;;;;;5093544;28;20241;-67
2021/06/15 01:43:13;;;;;;;6.85;4.72;;;16.00;99.90;;;;;;5093632;28;20235;-67
2021/06/15 01:45:43;;;;;;;8.65;4.72;;;15.90;99.90;;;;;;5092991;28;20263;-68
2021/06/15 01:48:16;;;;;;;7.07;5.00;;;15.80;99.90;;;;;;5093033;28;20667;-67
2021/06/15 01:50:46;;;;;;;10.13;5.40;;;15.70;99.90;;;;;;5093175;28;20266;-66
2021/06/15 01:53:17;;;;;;;6.25;5.03;;;15.70;99.90;;;;;;5053354;28;20213;-67
2021/06/15 01:55:50;;;;;;;6.47;4.70;;;15.70;99.90;;;;;;5053029;28;20209;-66
2021/06/15 01:58:23;;;;;;;7.57;5.07;;;15.70;99.90;;;;;;5052449;28;20506;-66
2021/06/15 02:00:53;;;;;;;6.10;5.22;;;15.70;99.90;;;;;;5053151;28;20189;-67
2021/06/15 02:03:21;;;;;;;6.85;4.95;;;15.60;99.90;;;;;;5052999;28;20205;-66
2021/06/15 02:05:54;;;;;;;7.70;5.30;;;15.60;99.90;;;;;;5052948;28;20194;-67
2021/06/15 02:08:26;;;;;;;8.68;5.05;;;15.50;99.90;;;;;;5052998;28;20272;-66
2021/06/15 02:10:55;;;;;;;7.47;5.43;;;15.50;99.90;;;;;;5052080;28;20285;-67
2021/06/15 02:13:27;;;;;;;6.80;5.25;;;15.50;99.90;;;;;;5051719;28;20197;-67
2021/06/15 02:15:57;;;;;;;8.65;5.07;;;15.40;99.90;;;;;;5051832;28;20202;-67
2021/06/15 02:18:27;;;;;;;6.80;5.47;;;15.40;99.90;;;;;;5051437;28;20287;-67
2021/06/15 02:20:57;;;;;;;9.07;5.25;;;15.40;99.90;;;;;;5051496;28;20185;-67
2021/06/15 02:23:27;;;;;;;6.30;5.20;;;15.40;99.90;;;;;;5051614;28;20201;-67
2021/06/15 02:25:58;;;;;;;9.10;5.45;;;15.40;99.90;;;;;;5051570;28;20295;-67
2021/06/15 02:28:28;;;;;;;7.80;5.38;;;15.40;99.90;;;;;;5055191;28;20243;-67
2021/06/15 02:30:59;;;;;;;8.73;5.53;;;15.40;99.90;;;;;;5055542;28;20292;-67
2021/06/15 02:33:31;;;;;;;8.63;5.38;;;15.40;99.90;;;;;;5037492;28;20540;-66
2021/06/15 02:36:04;;;;;;;7.07;5.63;;;15.30;99.90;;;;;;5055703;28;20288;-67
2021/06/15 02:38:35;;;;;;;6.60;5.78;;;15.20;99.90;;;;;;5055504;28;20658;-67
2021/06/15 02:41:07;;;;;;;8.55;5.40;;;15.30;99.90;;;;;;5055499;28;20224;-66
2021/06/15 02:43:37;;;;;;;7.40;6.00;;;15.30;99.90;;;;;;5055448;28;20284;-68
2021/06/15 02:46:08;;;;;;;7.95;5.70;;;15.30;99.90;;;;;;5055209;28;20192;-67
2021/06/15 02:48:39;;;;;;;9.88;5.82;;;15.20;99.90;;;;;;5055471;28;20182;-66
2021/06/15 02:51:09;;;;;;;9.68;6.40;;;15.30;99.90;;;;;;5061391;28;20196;-67
2021/06/15 02:53:43;;;;;;;8.57;5.75;;;15.30;99.90;;;;;;5095493;28;20200;-67
2021/06/15 02:56:15;;;;;;;6.28;5.57;;;15.30;99.90;;;;;;5095406;28;20307;-67
2021/06/15 02:58:45;;;;;;;8.10;6.00;;;15.30;99.90;;;;;;5095197;28;20267;-66
2021/06/15 03:01:13;;;;;;;8.73;5.78;;;15.20;99.90;;;;;;5095177;28;20191;-67
2021/06/15 03:03:41;;;;;;;6.85;6.13;;;15.20;99.90;;;;;;5095318;28;20634;-66
2021/06/15 03:06:09;;;;;;;10.25;5.93;;;15.30;99.90;;;;;;5094993;28;20201;-67
2021/06/15 03:08:40;;;;;;;8.68;6.05;;;15.40;99.90;;;;;;5094968;28;20688;-67
2021/06/15 03:11:08;;;;;;;8.65;6.78;;;15.60;99.90;;;;;;5095150;28;20184;-67
2021/06/15 03:13:39;;;;;;;7.75;6.30;;;15.80;99.90;;;;;;5095157;28;20295;-66
2021/06/15 03:16:15;;;;;;;10.88;6.28;;;16.00;99.90;;;;;;5095283;28;20295;-66
2021/06/15 03:18:51;;;;;;;9.50;6.35;;;16.00;99.90;;;;;;5095080;28;20184;-67
2021/06/15 03:21:21;;;;;;;8.10;6.30;;;15.90;99.90;;;;;;5095120;28;20279;-67
2021/06/15 03:23:53;;;;;;;10.38;6.43;;;15.90;99.90;;;;;;5094781;28;20180;-67
2021/06/15 03:26:25;;;;;;;9.52;6.90;;;16.00;99.90;;;;;;5095105;28;20279;-67
2021/06/15 03:28:56;;;;;;;8.95;6.70;;;16.10;99.90;;;;;;5094796;28;20235;-67
2021/06/15 03:31:27;;;;;;;7.88;5.82;;;16.00;99.90;;;;;;5094945;28;20283;-66
2021/06/15 03:33:57;;;;;;;7.75;6.53;;;15.90;99.90;;;;;;5094411;28;20734;-67
2021/06/15 03:36:26;;;;;;;8.13;6.20;;;16.00;99.90;;;;;;5094769;28;20207;-67
2021/06/15 03:38:56;;;;;;;11.10;6.93;;;16.10;99.90;;;;;;5092870;28;20290;-67
2021/06/15 03:41:27;;;;;;;9.55;5.95;;;16.20;99.90;;;;;;5094591;28;20298;-67
2021/06/15 03:43:59;;;;;;;9.02;6.18;;;16.30;99.90;;;;;;5094651;28;20187;-66
2021/06/15 03:46:30;;;;;;;7.40;5.97;;;16.30;99.90;;;;;;5094662;28;20693;-67
2021/06/15 03:48:59;;;;;;;7.32;5.85;;;16.40;99.90;;;;;;5094327;28;20302;-67
2021/06/15 03:51:30;;;;;;;8.50;5.85;;;16.50;99.90;;;;;;5088678;28;20280;-67
2021/06/15 03:54:08;;;;;;;7.28;6.40;;;16.50;99.90;;;;;;5074057;28;20197;-67
2021/06/15 03:56:38;;;;;;;9.30;6.47;;;16.60;99.90;;;;;;5074138;28;20208;-67
2021/06/15 03:59:08;;;;;;;7.38;5.50;;;16.70;99.90;;;;;;5073834;28;20223;-66
2021/06/15 04:01:40;;;;;;;7.75;6.05;;;16.60;99.90;;;;;;5074150;28;20185;-67
2021/06/15 04:04:10;;;;;;;7.00;5.38;;;16.60;99.90;;;;;;5073758;28;20625;-67
2021/06/15 04:06:41;;;;;;;8.60;5.72;;;16.70;99.90;;;;;;5074060;28;20197;-67
2021/06/15 04:09:12;;;;;;;8.23;6.00;;;16.70;99.90;;;;;;5073511;28;20240;-67
2021/06/15 04:11:41;;;;;;;7.32;5.68;;;16.60;99.90;;;;;;5074154;28;20211;-67
2021/06/15 04:14:12;;;;;;;7.20;5.93;;;16.70;99.90;;;;;;5073795;28;20207;-66
2021/06/15 04:16:44;;;;;;;6.25;5.57;;;16.90;99.90;;;;;;5073782;28;20215;-67
2021/06/15 04:19:16;;;;;;;10.95;6.07;;;17.00;99.90;;;;;;5073460;28;20621;-66
2021/06/15 04:21:46;;;;;;;8.15;5.57;;;17.10;99.90;;;;;;5073452;28;20227;-67
2021/06/15 04:24:18;;;;;;;8.57;5.80;;;17.20;99.90;;;;;;5073378;28;20209;-66
2021/06/15 04:26:47;;;;;;;9.02;6.00;;;17.30;99.90;;;;;;5073244;28;20595;-67
2021/06/15 04:29:16;;;;;;;5.68;4.97;;;17.40;99.90;;;;;;5073449;28;20679;-67
2021/06/15 04:31:47;;;;;;;5.80;5.30;;;17.40;99.90;;;;;;5073399;28;20224;-67
2021/06/15 04:34:19;;;;;;;11.95;5.95;;;17.40;99.90;;;;;;5073355;28;20272;-66
2021/06/15 04:36:48;;;;;;;6.15;5.55;;;17.60;99.90;;;;;;5073977;28;20181;-66
2021/06/15 04:39:19;;;;;;;9.27;5.45;;;17.70;99.90;;;;;;5073649;28;20562;-67
2021/06/15 04:41:57;;;;;;;8.18;5.43;;;17.80;99.90;;;;;;5073574;28;20719;-67
2021/06/15 04:44:27;;;;;;;8.52;5.95;;;17.90;99.90;;;;;;5073778;28;20184;-67
2021/06/15 04:47:00;;;;;;;7.03;5.68;;;18.10;99.90;;;;;;5073944;28;20295;-67
2021/06/15 04:49:31;;;;;;;8.70;5.38;;;18.20;99.90;;;;;;5073264;28;20272;-68
2021/06/15 04:52:01;;;;;;;8.55;5.47;;;18.60;99.90;;;;;;5083900;28;20200;-67
2021/06/15 04:54:34;;;;;;;7.72;5.07;;;19.40;99.90;;;;;;5079576;28;20545;-68
2021/06/15 04:57:06;;;;;;;7.70;4.97;;;20.40;99.90;;;;;;5072930;28;20204;-68
2021/06/15 04:59:35;;;;;;;6.60;4.57;;;21.00;99.90;;;;;;5073404;28;20766;-68
2021/06/15 05:02:05;;;;;;;8.63;6.15;;;21.70;99.90;;;;;;5073303;28;20247;-68
2021/06/15 05:04:34;;;;;;;9.80;6.32;;;22.60;99.90;;;;;;5073062;28;20230;-67
2021/06/15 05:07:03;;;;;;;7.00;5.32;;;23.40;99.90;;;;;;5073254;28;20204;-68
2021/06/15 05:09:33;;;;;;;6.57;3.92;;;24.00;99.90;;;;;;5072685;28;20200;-67
2021/06/15 05:12:02;;;;;;;5.00;4.43;;;24.60;99.90;;;;;;5072555;28;20651;-68
2021/06/15 05:14:35;;;;;;;5.25;3.95;;;25.20;99.90;;;;;;5072991;28;20321;-67
2021/06/15 05:17:04;;;;;;;9.50;5.32;;;;;;;;;;5072781;28;20195;-69
2021/06/15 05:19:33;;;;;;;8.15;4.95;;;;;;;;;;5072611;28;20764;-68
2021/06/15 05:22:04;;;;;;;6.85;4.32;;;;;;;;;;5073009;28;20223;-67
2021/06/15 05:24:49;;;;;;;7.35;4.32;;;;;;;;;;5072789;28;20189;-67
2021/06/15 05:27:18;;;;;;;9.48;5.15;;;;;;;;;;5072987;28;20305;-68
2021/06/15 05:29:46;;;;;;;7.68;5.20;;;;;;;;;;5073080;28;20197;-68
2021/06/15 05:32:14;;;;;;;5.90;4.85;;;;;;;;;;5072583;28;20576;-67
2021/06/15 05:34:44;;;;;;;6.97;4.85;;;;;;;;;;5072550;28;20192;-68
2021/06/15 05:37:13;;;;;;;6.47;4.68;;;;;;;;;;5072225;28;20652;-67
2021/06/15 05:39:41;;;;;;;7.47;5.15;;;;;;;;;;5069577;28;20212;-68
2021/06/15 05:42:11;;;;;;;8.05;5.30;;;;;;;;;;5072432;28;20196;-68
2021/06/15 05:44:41;;;;;;;8.30;5.45;;;;;;;;;;5071925;28;20288;-68
2021/06/15 05:47:09;;;;;;;7.53;5.18;;;;;;;;;;5071810;28;20665;-68
2021/06/15 05:49:37;;;;;;;8.38;5.43;;;;;;;;;;5072383;28;20664;-66
2021/06/15 05:52:08;;;;;;;10.88;5.78;;;;;;;;;;5083449;28;20215;-67
2021/06/15 05:54:37;;;;;;;9.82;5.50;;;;;;;;;;5089817;28;20184;-67
2021/06/15 05:57:05;;;;;;;10.50;5.47;;;;;;;;;;5072413;28;20252;-68
2021/06/15 05:59:34;;;;;;;8.27;5.30;;;;;;;;;;5070469;28;20231;-63
2021/06/15 06:02:02;;;;;;;13.23;8.68;;;;;;;;;;5081809;28;20658;-64
2021/06/15 06:04:33;;;;;;;7.90;6.03;;;;;;;;;;5089635;28;20294;-66
2021/06/15 06:09:49;;;;;;;6.72;4.75;;;;;;;;;;5089172;28;20271;-66
2021/06/15 06:12:17;;;;;;;8.65;5.40;;;;;;;;;;5089569;28;20275;-67
2021/06/15 06:14:45;;;;;;;9.60;5.80;;;;;;;;;;5089593;28;20200;-66
2021/06/15 06:17:13;;;;;;;8.77;5.43;;;;;;;;;;5089642;28;20212;-68
2021/06/15 06:20:02;;;;;;;6.22;5.13;;;;;;;;;;5089139;28;20219;-67
2021/06/15 06:22:30;;;;;;;6.80;5.07;;;;;;;;;;5089202;28;20203;-65
2021/06/15 06:25:02;;;;;;;5.28;4.70;;;;;;;;;;5068942;28;20200;-69
2021/06/15 06:27:35;;;;;;;6.82;5.10;;;;;;;;;;5069180;28;20266;-69
2021/06/15 06:30:03;;;;;;;6.78;5.05;;;;;;;;;;5069398;28;20228;-68
2021/06/15 06:32:31;;;;;;;6.03;4.70;;;;;;;;;;5069337;28;20208;-68
2021/06/15 06:35:01;;;;;;;4.60;4.15;;;;;;;;;;5068857;28;20664;-68
2021/06/15 06:37:30;;;;;;;11.63;5.47;;;;;;;;;;5068835;28;20195;-67
2021/06/15 06:39:59;;;;;;;8.82;5.03;;;;;;;;;;5069004;28;20220;-66
2021/06/15 06:42:27;;;;;;;9.23;4.85;;;;;;;;;;5068965;28;20459;-67
2021/06/15 06:44:56;;;;;;;5.15;4.25;;;;;;;;;;5068695;28;20295;-66
2021/06/15 06:47:24;;;;;;;8.30;5.07;;;;;;;;;;5068389;28;20299;-69
2021/06/15 06:49:53;;;;;;;6.63;4.20;;;;;;;;;;5069286;28;20255;-66
2021/06/15 06:52:21;;;;;;;6.65;4.55;;;;;;;;;;5082093;28;20231;-66
2021/06/15 06:54:49;;;;;;;6.38;5.53;;;;;;;;;;5088805;28;20295;-67
2021/06/15 06:57:19;;;;;;;7.03;5.20;;;;;;;;;;5088712;28;20200;-66
2021/06/15 06:59:47;;;;;;;6.32;5.68;;;;;;;;;;5088792;28;20315;-68
2021/06/15 07:02:15;;;;;;;6.43;5.47;;;;;;;;;;5089103;28;20247;-68
2021/06/15 07:04:44;;;;;;;5.22;4.70;;;;;;;;;;5088817;28;20573;-66
2021/06/15 07:07:12;;;;;;;5.60;4.60;;;;;;;;;;5089196;28;20206;-66
2021/06/15 07:09:40;;;;;;;8.93;5.40;;;;;;;;;;5088785;28;20196;-66
2021/06/15 07:12:09;;;;;;;6.30;5.63;;;;;;;;;;5088534;28;20744;-67
2021/06/15 07:14:38;;;;;;;8.05;5.72;;;;;;;;;;5092354;28;20207;-65
2021/06/15 07:17:06;;;;;;;6.63;5.45;;;;;;;;;;5092748;28;20274;-66
2021/06/15 07:19:35;;;;;;;7.50;5.60;;;;;;;;;;5092594;28;20629;-65
2021/06/15 07:22:03;;;;;;;7.00;5.95;;;;;;;;;;5092814;28;20210;-66
2021/06/15 07:24:31;;;;;;;7.18;4.95;;;;;;;;;;5092185;28;20284;-66
2021/06/15 07:26:59;;;;;;;9.00;5.93;;;;;;;;;;5092548;28;20196;-66
2021/06/15 07:29:28;;;;;;;6.32;5.55;;;;;;;;;;5092496;28;20263;-66
2021/06/15 07:31:57;;;;;;;5.57;4.55;;;;;;;;;;5092364;28;20286;-66
2021/06/15 07:34:26;;;;;;;7.25;5.05;;;;;;;;;;5092278;28;20208;-66
2021/06/15 07:36:54;;;;;;;7.72;5.82;;;;;;;;;;5091874;28;20204;-66
2021/06/15 07:39:22;;;;;;;5.22;4.72;;;;;;;;;;5091864;28;20215;-66
2021/06/15 07:41:51;;;;;;;7.28;5.80;;;;;;;;;;5091837;28;20655;-67
2021/06/15 07:44:19;;;;;;;6.45;5.70;;;;;;;;;;5091998;28;20210;-65
2021/06/15 07:46:47;;;;;;;9.75;6.32;;;;;;;;;;5091784;28;20207;-67
2021/06/15 07:49:17;;;;;;;7.05;5.32;;;;;;;;;;5092113;28;20215;-67
2021/06/15 07:51:45;;;;;;;9.32;6.00;;;;;;;;;;5083671;28;20287;-66
2021/06/15 07:54:33;;;;;;;8.15;6.00;;;;;;;;;;5071203;28;20295;-65
2021/06/15 07:57:01;;;;;;;6.72;5.32;;;25.20;99.90;;;;;;5071392;28;20208;-68
2021/06/15 07:59:29;;;;;;;7.47;6.28;;;25.20;99.90;;;;;;5071605;28;20286;-66
2021/06/15 08:01:57;;;;;;;9.38;5.88;;;25.20;99.90;;;;;;5071357;28;20291;-66
2021/06/15 08:04:27;;;;;;;10.07;6.38;;;25.30;99.90;;;;;;5071389;28;20196;-65
2021/06/15 08:06:55;;;;;;;6.82;5.30;;;25.40;99.90;;;;;;5071316;28;20207;-67
2021/06/15 08:09:23;;;;;;;9.35;5.88;;;25.40;99.90;;;;;;5071171;28;20200;-65
2021/06/15 08:11:51;;;;;;;6.55;5.95;;;25.30;99.90;;;;;;5071457;28;20379;-65
2021/06/15 08:14:19;;;;;;;6.85;5.78;;;25.50;99.90;;;;;;5070938;28;20231;-69
2021/06/15 08:16:47;;;;;;;8.32;5.18;;;25.40;99.90;;;;;;5071245;28;20304;-65
2021/06/15 08:19:15;;;;;;;6.90;5.28;;;25.20;99.90;;;;;;5070927;28;20227;-64
2021/06/15 08:21:44;;;;;;;7.05;5.70;;;25.10;99.90;;;;;;5071267;28;20201;-74
2021/06/15 08:24:15;;;;;;;5.32;4.88;;;25.20;99.90;;;;;;5070659;28;20253;-69
2021/06/15 08:26:43;;;;;;;7.43;6.40;;;24.90;99.90;;;;;;5070444;28;20232;-67
2021/06/15 08:29:11;;;;;;;6.10;5.18;;;24.80;99.90;;;;;;5051085;28;20232;-68
2021/06/15 08:31:39;;;;;;;8.35;5.93;;;24.80;99.90;;;;;;5050886;28;20201;-68
2021/06/15 08:34:07;;;;;;;8.05;6.90;;;24.90;99.90;;;;;;5051040;28;20205;-66
2021/06/15 08:36:35;;;;;;;7.85;6.95;;;25.10;99.90;;;;;;5050837;28;20293;-62
2021/06/15 08:39:06;;;;;;;14.73;7.03;;;25.30;99.90;;;;;;5050338;28;20204;-63
2021/06/15 08:41:34;;;;;;;7.97;6.22;;;25.60;99.90;;;;;;5050486;28;20181;-62
2021/06/15 08:44:04;;;;;;;8.80;6.82;;;25.80;99.90;;;;;;5050823;28;20283;-66
2021/06/15 08:46:32;;;;;;;7.35;6.43;;;26.10;99.90;;;;;;5050491;28;20240;-65
2021/06/15 08:49:02;;;;;;;7.85;6.15;;;26.20;99.90;;;;;;5050246;28;20289;-65
2021/06/15 08:51:30;;;;;;;9.55;6.60;;;26.40;99.90;;;;;;5056776;28;20200;-66
2021/06/15 08:54:03;;;;;;;9.52;6.13;;;26.40;99.90;;;;;;5070171;28;20295;-67
2021/06/15 08:56:35;;;;;;;8.88;6.10;;;26.30;99.90;;;;;;5070088;28;20195;-63
2021/06/15 08:59:29;;;;;;;8.23;6.53;;;26.30;99.90;;;;;;5070536;28;20196;-63
2021/06/15 09:01:59;;;;;;;7.55;6.85;;;26.40;99.90;;;;;;5070455;28;20216;-66
2021/06/15 09:04:27;;;;;;;6.97;5.78;;;26.40;99.90;;;;;;5070291;28;20208;-66
2021/06/15 09:06:58;;;;;;;8.02;6.28;;;26.50;99.90;;;;;;5070263;28;20304;-61
2021/06/15 09:09:38;;;;;;;7.25;6.43;;;26.80;99.90;;;;;;5069848;28;20288;-63
2021/06/15 09:12:09;;;;;;;9.18;7.32;;;27.00;99.90;;;;;;5070137;28;20188;-63
2021/06/15 09:14:45;;;;;;;11.18;8.15;;;27.20;99.90;;;;;;5070091;28;20193;-65
2021/06/15 09:17:15;;;;;;;10.35;7.57;;;27.40;99.90;;;;;;5069924;28;20199;-67
2021/06/15 09:19:43;;;;;;;8.93;7.20;;;27.40;99.90;;;;;;5069924;28;20228;-64
2021/06/15 09:22:26;;;;;;;11.80;7.63;;;27.40;99.90;;;;;;5069711;28;20283;-66
2021/06/15 09:24:54;;;;;;;8.65;7.57;;;27.30;99.90;;;;;;5069609;28;20209;-62
2021/06/15 09:27:30;;;;;;;8.85;7.05;;;27.30;99.90;;;;;;5075121;28;20235;-78
2021/06/15 09:29:59;;;;;;;8.93;7.18;;;27.20;99.90;;;;;;5090736;28;20184;-73
2021/06/15 09:32:30;;;;;;;7.75;6.25;;;27.10;99.90;;;;;;5090095;28;20743;-70
2021/06/15 09:35:00;;;;;;;11.43;7.55;;;27.10;99.90;;;;;;5090397;28;20184;-72
2021/06/15 09:37:37;;;;;;;13.85;9.55;;;27.00;99.90;;;;;;5089485;28;20615;-63
2021/06/15 09:40:15;;;;;;;11.48;8.48;;;26.80;99.90;;;;;;5089886;28;20210;-64
2021/06/15 09:42:57;;;;;;;9.68;8.57;;;26.70;99.90;;;;;;5089937;28;20567;-66
2021/06/15 09:45:27;;;;;;;10.85;7.70;;;26.70;99.90;;;;;;5089987;28;20242;-62
2021/06/15 09:48:17;;;;;;;9.48;7.88;;;26.80;99.90;;;;;;5089961;28;20283;-61
2021/06/15 09:50:45;;;;;;;10.05;8.30;;;27.30;99.90;;;;;;5089513;28;20231;-66
2021/06/15 09:53:23;;;;;;;6.60;5.93;;;27.60;99.90;;;;;;5069544;28;20291;-66
2021/06/15 09:55:52;;;;;;;9.93;7.82;;;27.80;99.90;;;;;;5069283;28;20711;-62
2021/06/15 09:58:40;;;;;;;11.90;9.05;;;28.10;99.90;;;;;;5069678;28;20295;-64
2021/06/15 10:01:30;;;;;;;8.38;7.13;;;28.40;99.90;;;;;;5069348;28;20216;-63
2021/06/15 10:04:08;;;;;;;10.70;9.60;;;28.30;99.90;;;;;;5069435;28;20208;-64
2021/06/15 10:06:37;;;;;;;9.32;8.43;;;28.10;99.90;;;;;;5069399;28;20192;-68
2021/06/15 10:09:06;;;;;;;10.40;9.27;;;27.70;99.90;;;;;;5069341;28;20200;-67
2021/06/15 10:11:34;;;;;;;15.10;9.63;;;27.40;99.90;;;;;;5069355;28;20200;-66
2021/06/15 10:14:04;;;;;;;11.57;8.65;;;27.30;99.90;;;;;;5069046;28;20649;-66
2021/06/15 10:16:33;;;;;;;13.25;8.85;;;27.10;99.90;;;;;;5071714;28;20200;-66
2021/06/15 10:19:01;;;;;;;11.55;8.65;;;27.00;99.90;;;;;;5072351;28;20200;-65
2021/06/15 10:21:30;;;;;;;10.70;8.63;;;27.00;99.90;;;;;;5071999;28;20228;-67
2021/06/15 10:23:59;;;;;;;13.70;9.70;;;27.30;99.90;;;;;;5069341;28;20318;-65
2021/06/15 10:26:27;;;;;;;11.45;9.68;;;27.10;99.90;;;;;;5071599;28;20273;-66
2021/06/15 10:28:55;;;;;;;14.93;10.25;;;27.00;99.90;;;;;;5072007;28;20232;-67
2021/06/15 10:31:29;;;;;;;10.60;9.35;;;26.90;99.90;;;;;;5072276;28;20254;-66
2021/06/15 10:33:58;;;;;;;11.73;9.10;;;26.80;99.90;;;;;;5072153;28;20192;-66
2021/06/15 10:36:38;;;;;;;11.18;10.07;;;26.80;99.90;;;;;;5071996;28;20208;-66
2021/06/15 10:39:07;;;;;;;14.07;10.27;;;26.70;99.90;;;;;;5071637;28;20185;-66
2021/06/15 10:41:35;;;;;;;13.73;9.95;;;26.70;99.90;;;;;;5071637;28;20706;-65
2021/06/15 10:44:03;;;;;;;8.60;7.68;;;26.90;99.90;;;;;;5072145;28;20231;-66
2021/06/15 10:46:38;;;;;;;10.60;9.45;;;27.10;99.90;;;;;;5072061;28;20291;-66
2021/06/15 10:49:09;;;;;;;10.52;9.20;;;26.90;99.90;;;;;;5074576;28;20652;-66
2021/06/15 10:51:43;;;;;;;12.10;9.27;;;26.70;99.90;;;;;;5076479;28;20272;-66
2021/06/15 10:54:40;;;;;;;12.02;10.13;;;26.60;99.90;;;;;;5074677;28;20276;-66
2021/06/15 10:57:17;;;;;;;9.57;8.60;;;26.80;99.90;;;;;;5075288;28;20691;-66
2021/06/15 11:00:02;;;;;;;10.00;8.68;;;27.10;99.90;;;;;;5075388;28;20200;-66
2021/06/15 11:02:32;;;;;;;11.40;8.30;;;27.00;99.90;;;;;;5073053;28;20548;-66
2021/06/15 11:05:36;;;;;;;10.70;8.02;;;26.60;99.90;;;;;;5075699;28;20211;-66
2021/06/15 11:08:22;;;;;;;13.35;8.07;;;26.30;99.90;;;;;;5074483;28;20625;-66
2021/06/15 11:10:56;;;;;;;10.05;6.82;;;26.20;99.90;;;;;;5075194;28;20195;-65
2021/06/15 11:13:40;;;;;;;8.20;7.40;;;26.40;99.90;;;;;;5074830;28;20262;-67
2021/06/15 11:16:19;;;;;;;9.75;8.75;;;26.40;99.90;;;;;;5074412;28;20189;-63
2021/06/15 11:19:27;;;;;;;10.00;8.63;;;26.50;99.90;;;;;;5072411;28;20651;-62
2021/06/15 11:21:56;;;;;;;11.80;8.25;;;26.60;99.90;;;;;;5086604;28;20209;-65
2021/06/15 11:24:26;;;;;;;9.73;7.97;;;26.70;99.90;;;;;;5081588;28;20215;-63
2021/06/15 11:26:56;;;;;;;10.70;8.63;;;26.90;99.90;;;;;;5092692;28;20283;-63
2021/06/15 11:29:33;;;;;;;11.95;7.60;;;27.00;99.90;;;;;;5092585;28;20224;-65
2021/06/15 11:32:22;;;;;;;9.32;7.35;;;27.00;99.90;;;;;;5092659;28;20180;-69
2021/06/15 11:35:18;;;;;;;9.75;7.05;;;27.50;99.90;;;;;;5092694;28;20186;-67
2021/06/15 11:37:49;;;;;;;9.20;8.23;;;27.90;99.90;;;;;;5092261;28;20568;-61
2021/06/15 11:40:23;;;;;;;9.35;7.20;;;28.10;99.90;;;;;;5092372;28;20215;-61
2021/06/15 11:42:52;;;;;;;9.60;6.68;;;28.30;99.90;;;;;;5092059;28;20294;-61
2021/06/15 11:45:32;;;;;;;11.10;7.20;;;28.50;99.90;;;;;;5092506;28;20200;-61
2021/06/15 11:48:30;;;;;;;8.07;7.10;;;28.60;99.90;;;;;;5092393;28;20191;-66
2021/06/15 11:51:02;;;;;;;7.10;6.32;;;28.80;99.90;;;;;;5090601;28;20177;-64
2021/06/15 11:53:30;;;;;;;7.55;6.25;;;28.90;99.90;;;;;;5071989;28;20205;-64
2021/06/15 11:56:01;;;;;;;8.85;6.65;;;28.90;99.90;;;;;;5071466;28;20244;-70
2021/06/15 11:58:31;;;;;;;9.13;7.45;;;29.00;99.90;;;;;;5071485;28;20232;-69
2021/06/15 12:01:02;;;;;;;6.85;6.18;;;28.70;99.90;;;;;;5070681;28;20227;-69
2021/06/15 12:03:35;;;;;;;8.07;7.28;;;28.70;99.90;;;;;;5071890;28;20185;-70
2021/06/15 12:06:05;;;;;;;9.52;7.03;;;28.80;99.90;;;;;;5071513;28;20664;-69
2021/06/15 12:08:35;;;;;;;8.20;6.75;;;28.70;99.90;;;;;;5071115;28;20577;-66
2021/06/15 12:11:06;;;;;;;10.20;7.57;;;28.50;99.90;;;;;;5071542;28;20222;-68
2021/06/15 12:13:34;;;;;;;8.35;6.05;;;28.40;99.90;;;;;;5071226;28;20552;-68
2021/06/15 12:16:04;;;;;;;7.57;5.88;;;28.20;99.90;;;;;;5071447;28;20269;-71
2021/06/15 12:18:40;;;;;;;8.15;7.30;;;28.20;99.90;;;;;;5071227;28;20205;-70
2021/06/15 12:21:14;;;;;;;9.18;6.78;;;28.00;99.90;;;;;;5071140;28;20288;-65
2021/06/15 12:23:44;;;;;;;7.72;6.78;;;27.80;99.90;;;;;;5071115;28;20187;-66
2021/06/15 12:26:21;;;;;;;9.52;7.40;;;27.60;99.90;;;;;;5071473;28;20205;-66
2021/06/15 12:28:52;;;;;;;10.43;7.20;;;27.60;99.90;;;;;;5070676;28;20233;-63
2021/06/15 12:31:22;;;;;;;10.57;7.90;;;27.30;99.90;;;;;;5070929;28;20196;-65
2021/06/15 12:33:53;;;;;;;8.95;8.05;;;27.20;99.90;;;;;;5071035;28;20185;-68
2021/06/15 12:36:25;;;;;;;8.30;6.90;;;27.00;99.90;;;;;;5070712;28;20227;-68
2021/06/15 12:39:06;;;;;;;9.13;7.07;;;26.80;99.90;;;;;;5070602;28;20189;-70
2021/06/15 12:41:35;;;;;;;7.82;7.13;;;27.00;99.90;;;;;;5070795;28;20209;-70
2021/06/15 12:44:05;;;;;;;8.43;7.63;;;27.10;99.90;;;;;;5070825;28;20227;-71
2021/06/15 12:46:34;;;;;;;7.88;6.72;;;27.10;99.90;;;;;;5070804;28;20210;-66
2021/06/15 12:49:05;;;;;;;7.38;6.68;;;27.40;99.90;;;;;;5070380;28;20201;-69
2021/06/15 12:51:44;;;;;;;7.60;6.90;;;27.50;99.90;;;;;;5076806;28;20621;-66
2021/06/15 12:54:23;;;;;;;9.05;7.18;;;27.50;99.90;;;;;;5090280;28;20283;-64
2021/06/15 12:57:01;;;;;;;7.70;6.97;;;27.30;99.90;;;;;;5089646;28;20191;-65
2021/06/15 12:59:30;;;;;;;7.78;6.07;;;27.20;99.90;;;;;;5090254;28;20629;-66
2021/06/15 13:01:58;;;;;;;7.38;6.55;;;27.30;99.90;;;;;;5090498;28;20312;-66
2021/06/15 13:04:31;;;;;;;7.07;6.18;;;27.40;99.90;;;;;;5077814;28;20723;-62
2021/06/15 13:07:00;;;;;;;8.00;7.10;;;27.50;99.90;;;;;;5051306;28;20677;-64
2021/06/15 13:09:30;;;;;;;7.43;6.38;;;27.50;99.90;;;;;;5074271;28;20208;-63
2021/06/15 13:12:01;;;;;;;7.10;6.40;;;27.50;99.90;;;;;;5083298;28;20195;-63
2021/06/15 13:14:31;;;;;;;10.52;7.28;;;27.40;99.90;;;;;;5073666;28;20287;-65
2021/06/15 13:17:05;;;;;;;7.93;6.95;;;27.20;99.90;;;;;;5072315;28;20640;-66
2021/06/15 13:19:41;;;;;;;8.85;7.13;;;27.20;99.90;;;;;;5089990;28;20180;-64
2021/06/15 13:22:15;;;;;;;10.90;8.35;;;27.40;99.90;;;;;;5089782;28;20318;-67
2021/06/15 13:24:43;;;;;;;10.23;7.50;;;27.10;99.90;;;;;;5089631;28;20181;-68
2021/06/15 13:27:36;;;;;;;12.30;8.27;;;27.10;99.90;;;;;;5073947;28;20233;-67
2021/06/15 13:30:08;;;;;;;8.75;7.85;;;27.00;99.90;;;;;;5070062;28;20189;-64